Time;durP1;ratioP1;P1;durP2;ratioP2;P2;SDS_P1;SDS_P2;PMS_P1;PMS_P2;Temp;Humidity;BMP_temperature;BMP_pressure;BME280_temperature;BME280_humidity;BME280_pressure;Samples;Min_cycle;Max_cycle;Signal;HPM_P1;HPM_P2
2021/12/06 00:00:01;;;;;;;;;;;2.60;99.90;;;;;;5057094;28;19924;-54
2021/12/06 00:02:28;;;;;;;;;;;2.60;99.90;;;;;;5056848;28;19979;-54
2021/12/06 00:04:55;;;;;;;;;;;2.70;99.90;;;;;;5066907;28;19979;-53
2021/12/06 00:07:24;;;;;;;;;;;2.70;99.90;;;;;;5054509;28;20338;-54
2021/12/06 00:09:50;;;;;;;;;;;2.80;99.90;;;;;;5061638;28;19925;-54
2021/12/06 00:12:17;;;;;;;;;;;2.90;99.90;;;;;;5057593;28;20372;-53
2021/12/06 00:14:44;;;;;;;;;;;2.80;99.90;;;;;;5069962;28;20386;-55
2021/12/06 00:17:13;;;;;;;;;;;2.80;99.90;;;;;;5073255;28;20386;-53
2021/12/06 00:19:40;;;;;;;;;;;2.90;99.90;;;;;;5073032;28;19929;-53
2021/12/06 00:22:10;;;;;;;;;;;3.00;99.90;;;;;;5072091;28;19978;-53
2021/12/06 00:24:37;;;;;;;;;;;3.00;99.90;;;;;;5057958;28;20338;-54
2021/12/06 00:33:11;;;;;;;;;;;3.10;99.90;;;;;;5069220;28;20405;-52
2021/12/06 00:35:38;;;;;;;;;;;2.90;99.90;;;;;;5071042;28;19977;-52
2021/12/06 00:38:04;;;;;;;;;;;2.80;99.90;;;;;;5059975;28;19928;-54
2021/12/06 00:40:32;;;;;;;;;;;2.70;99.90;;;;;;5072386;28;20519;-53
2021/12/06 00:42:59;;;;;;;;;;;2.80;99.90;;;;;;5072265;28;19924;-54
2021/12/06 00:45:26;;;;;;;;;;;2.80;99.90;;;;;;5061609;28;19979;-53
2021/12/06 00:47:53;;;;;;;;;;;2.80;99.90;;;;;;5053156;28;20348;-54
2021/12/06 00:50:22;;;;;;;;;;;2.80;99.90;;;;;;5053438;28;19932;-56
2021/12/06 00:52:49;;;;;;;;;;;3.00;99.90;;;;;;5059975;28;19925;-53
2021/12/06 00:55:15;;;;;;;;;;;3.00;99.90;;;;;;5071545;28;19924;-52
2021/12/06 00:57:43;;;;;;;;;;;3.00;99.90;;;;;;5056471;28;19929;-53
2021/12/06 01:00:14;;;;;;;;;;;3.00;99.90;;;;;;5061429;28;19986;-53
2021/12/06 01:02:41;;;;;;;;;;;3.10;99.90;;;;;;5073105;28;19928;-52
2021/12/06 01:05:08;;;;;;;;;;;3.00;99.90;;;;;;5065057;28;19925;-55
2021/12/06 01:07:36;;;;;;;;;;;2.90;99.90;;;;;;5072706;28;19978;-54
2021/12/06 01:10:03;;;;;;;;;;;2.70;99.90;;;;;;5090592;28;19924;-56
2021/12/06 01:12:30;;;;;;;;;;;2.80;99.90;;;;;;5084585;28;20412;-55
2021/12/06 01:14:57;;;;;;;;;;;2.70;99.90;;;;;;5081814;28;19950;-53
2021/12/06 01:17:24;;;;;;;;;;;2.70;99.90;;;;;;5091174;28;19924;-53
2021/12/06 01:19:50;;;;;;;;;;;2.70;99.90;;;;;;5080286;28;20337;-53
2021/12/06 01:40:08;;;;;;;;;;;2.80;99.90;;;;;;5015719;28;19975;-54
2021/12/06 01:42:35;;;;;;;;;;;2.80;99.90;;;;;;5065286;28;20386;-53
2021/12/06 01:45:04;;;;;;;;;;;2.90;99.90;;;;;;5069386;28;19970;-54
2021/12/06 01:47:32;;;;;;;;;;;2.90;99.90;;;;;;5071453;28;20287;-53
2021/12/06 01:50:02;;;;;;;;;;;2.90;99.90;;;;;;5071927;28;19925;-54
2021/12/06 01:52:30;;;;;;;;;;;2.60;99.90;;;;;;5071419;28;19985;-53
2021/12/06 01:54:58;;;;;;;;;;;2.60;99.90;;;;;;5054555;28;20002;-54
2021/12/06 01:57:25;;;;;;;;;;;2.70;99.90;;;;;;5057636;28;19932;-54
2021/12/06 01:59:53;;;;;;;;;;;2.70;99.90;;;;;;5051766;28;19925;-54
2021/12/06 02:02:20;;;;;;;;;;;2.60;99.90;;;;;;5067864;28;20390;-53
2021/12/06 02:04:47;;;;;;;;;;;2.70;99.90;;;;;;5063480;28;19979;-54
2021/12/06 02:07:16;;;;;;;;;;;2.60;99.90;;;;;;5071049;28;19993;-53
2021/12/06 02:09:43;;;;;;;;;;;2.70;99.90;;;;;;5072684;28;19925;-53
2021/12/06 02:12:10;;;;;;;;;;;2.60;99.90;;;;;;5075040;28;20345;-54
2021/12/06 02:14:46;;;;;;;;;;;2.50;99.90;;;;;;5075448;28;19967;-54
2021/12/06 02:17:18;;;;;;;;;;;2.60;99.90;;;;;;5073241;28;19924;-54
2021/12/06 02:19:48;;;;;;;;;;;2.60;99.90;;;;;;5074887;28;20394;-54
2021/12/06 02:22:17;;;;;;;;;;;2.70;99.90;;;;;;5055127;28;20313;-54
2021/12/06 02:24:44;;;;;;;;;;;2.80;99.90;;;;;;5055361;28;20002;-53
2021/12/06 02:27:11;;;;;;;;;;;2.80;99.90;;;;;;5057982;28;19933;-54
2021/12/06 02:29:39;;;;;;;;;;;2.80;99.90;;;;;;5055813;28;19924;-54
2021/12/06 02:32:10;;;;;;;;;;;2.70;99.90;;;;;;5070688;28;20340;-53
2021/12/06 02:34:37;;;;;;;;;;;2.60;99.90;;;;;;5060640;28;19932;-54
2021/12/06 02:37:05;;;;;;;;;;;2.50;99.90;;;;;;5070986;28;19928;-53
2021/12/06 02:39:33;;;;;;;;;;;2.50;99.90;;;;;;5076273;28;19928;-53
2021/12/06 02:42:00;;;;;;;;;;;2.50;99.90;;;;;;5075722;28;20275;-53
2021/12/06 02:44:27;;;;;;;;;;;2.50;99.90;;;;;;5065239;28;20004;-55
2021/12/06 02:46:54;;;;;;;;;;;2.40;99.90;;;;;;5074696;28;20356;-53
2021/12/06 02:49:21;;;;;;;;;;;2.50;99.90;;;;;;5067562;28;19986;-54
2021/12/06 02:51:50;;;;;;;;;;;2.40;99.90;;;;;;5054689;28;19925;-54
2021/12/06 02:54:19;;;;;;;;;;;2.50;99.90;;;;;;5074501;28;20418;-54
2021/12/06 02:56:56;;;;;;;;;;;2.50;99.90;;;;;;5074207;28;19974;-53
2021/12/06 02:59:23;;;;;;;;;;;2.50;99.90;;;;;;5074742;28;19951;-54
2021/12/06 03:01:53;;;;;;;;;;;2.50;99.90;;;;;;5067306;28;19928;-54
2021/12/06 03:04:20;;;;;;;;;;;2.50;99.90;;;;;;5054490;28;19924;-54
2021/12/06 03:06:52;;;;;;;;;;;2.50;99.90;;;;;;5067460;28;19924;-53
2021/12/06 03:09:20;;;;;;;;;;;2.50;99.90;;;;;;5074158;28;19931;-54
2021/12/06 03:11:49;;;;;;;;;;;2.40;99.90;;;;;;5073985;28;19925;-54
2021/12/06 03:14:17;;;;;;;;;;;2.40;99.90;;;;;;5073610;28;19925;-54
2021/12/06 03:16:44;;;;;;;;;;;2.40;99.90;;;;;;5073579;28;19924;-54
2021/12/06 03:19:11;;;;;;;;;;;2.40;99.90;;;;;;5064630;28;20352;-54
2021/12/06 03:21:38;;;;;;;;;;;2.20;99.90;;;;;;5066951;28;19924;-55
2021/12/06 03:24:05;;;;;;;;;;;2.10;99.90;;;;;;5074141;28;19925;-53
2021/12/06 03:26:33;;;;;;;;;;;2.20;99.90;;;;;;5072721;28;20393;-53
2021/12/06 03:29:01;;;;;;;;;;;2.30;99.90;;;;;;5057668;28;19975;-54
2021/12/06 03:31:28;;;;;;;;;;;2.30;99.90;;;;;;5058081;28;19924;-54
2021/12/06 03:33:56;;;;;;;;;;;2.40;99.90;;;;;;5064669;28;19925;-54
2021/12/06 03:36:24;;;;;;;;;;;2.30;99.90;;;;;;5070174;28;19932;-53
2021/12/06 03:38:51;;;;;;;;;;;2.40;99.90;;;;;;5068655;28;20479;-53
2021/12/06 03:41:18;;;;;;;;;;;2.40;99.90;;;;;;5068001;28;19925;-53
2021/12/06 03:43:47;;;;;;;;;;;2.50;99.90;;;;;;5066885;28;20045;-53
2021/12/06 03:46:17;;;;;;;;;;;2.50;99.90;;;;;;5062770;28;19975;-55
2021/12/06 03:48:44;;;;;;;;;;;2.50;99.90;;;;;;5064292;28;19925;-53
2021/12/06 03:51:10;;;;;;;;;;;2.30;99.90;;;;;;5064300;28;19993;-54
2021/12/06 03:53:37;;;;;;;;;;;1.80;99.90;;;;;;5069104;28;20344;-54
2021/12/06 03:56:04;;;;;;;;;;;1.70;99.90;;;;;;5072004;28;20377;-55
2021/12/06 03:58:32;;;;;;;;;;;1.90;99.90;;;;;;5056720;28;19928;-54
2021/12/06 04:01:00;;;;;;;;;;;2.10;99.90;;;;;;5052721;28;19978;-54
2021/12/06 04:03:29;;;;;;;;;;;2.20;99.90;;;;;;5053346;28;19931;-54
2021/12/06 04:05:57;;;;;;;;;;;2.30;99.90;;;;;;5058844;28;19933;-54
2021/12/06 04:08:25;;;;;;;;;;;2.40;99.90;;;;;;5071155;28;19932;-53
2021/12/06 04:10:51;;;;;;;;;;;2.40;99.90;;;;;;5068137;28;20393;-55
2021/12/06 04:13:18;;;;;;;;;;;2.20;99.90;;;;;;5070612;28;19925;-53
2021/12/06 04:15:45;;;;;;;;;;;2.00;99.90;;;;;;5061863;28;19971;-53
2021/12/06 04:18:12;;;;;;;;;;;1.90;99.90;;;;;;5053323;28;19928;-53
2021/12/06 04:20:40;;;;;;;;;;;2.00;99.90;;;;;;5064613;28;19928;-54
2021/12/06 04:23:08;;;;;;;;;;;2.20;99.90;;;;;;5063263;28;19929;-53
2021/12/06 04:25:35;;;;;;;;;;;2.20;99.90;;;;;;5068920;28;20353;-54
2021/12/06 04:28:06;;;;;;;;;;;2.30;99.90;;;;;;5061403;28;19924;-52
2021/12/06 04:30:33;;;;;;;;;;;2.40;99.90;;;;;;5053800;28;19925;-53
2021/12/06 04:33:00;;;;;;;;;;;2.40;99.90;;;;;;5053802;28;19931;-52
2021/12/06 04:35:28;;;;;;;;;;;2.50;99.90;;;;;;5072930;28;19928;-53
2021/12/06 04:37:57;;;;;;;;;;;2.40;99.90;;;;;;5072466;28;20272;-53
2021/12/06 04:40:24;;;;;;;;;;;2.40;99.90;;;;;;5071565;28;19928;-54
2021/12/06 04:42:51;;;;;;;;;;;2.50;99.90;;;;;;5071788;28;19943;-55
2021/12/06 04:45:17;;;;;;;;;;;2.40;99.90;;;;;;5053622;28;19979;-53
2021/12/06 04:47:44;;;;;;;;;;;2.40;99.90;;;;;;5062487;28;20382;-52
2021/12/06 04:50:13;;;;;;;;;;;2.30;99.90;;;;;;5072372;28;19936;-54
2021/12/06 04:52:40;;;;;;;;;;;2.20;99.90;;;;;;5070750;28;19935;-54
2021/12/06 04:55:15;;;;;;;;;;;2.20;99.90;;;;;;5072498;28;19925;-54
2021/12/06 04:57:43;;;;;;;;;;;2.30;99.90;;;;;;5072252;28;19928;-54
2021/12/06 05:00:12;;;;;;;;;;;2.10;99.90;;;;;;5071596;28;19970;-53
2021/12/06 05:02:39;;;;;;;;;;;1.90;99.90;;;;;;5071845;28;19978;-53
2021/12/06 05:05:11;;;;;;;;;;;2.00;99.90;;;;;;5072236;28;19978;-52
2021/12/06 05:07:40;;;;;;;;;;;2.10;99.90;;;;;;5070632;28;19925;-51
2021/12/06 05:10:10;;;;;;;;;;;2.20;99.90;;;;;;5062608;28;20452;-52
2021/12/06 05:12:37;;;;;;;;;;;2.20;99.90;;;;;;5052632;28;19929;-52
2021/12/06 05:15:05;;;;;;;;;;;2.20;99.90;;;;;;5054435;28;19924;-52
2021/12/06 05:17:31;;;;;;;;;;;2.30;99.90;;;;;;5061402;28;19932;-52
2021/12/06 05:19:58;;;;;;;;;;;2.40;99.90;;;;;;5059039;28;20329;-51
2021/12/06 05:22:25;;;;;;;;;;;2.40;99.90;;;;;;5051580;28;19932;-52
2021/12/06 05:24:52;;;;;;;;;;;2.50;99.90;;;;;;5052033;28;19929;-52
2021/12/06 05:27:26;;;;;;;;;;;2.50;99.90;;;;;;5051993;28;19971;-52
2021/12/06 05:29:57;;;;;;;;;;;2.40;99.90;;;;;;5060911;28;20007;-52
2021/12/06 05:32:25;;;;;;;;;;;2.50;99.90;;;;;;5052331;28;19978;-52
2021/12/06 05:34:57;;;;;;;;;;;2.50;99.90;;;;;;5069188;28;20410;-52
2021/12/06 05:37:24;;;;;;;;;;;2.60;99.90;;;;;;5053040;28;19979;-52
2021/12/06 05:39:51;;;;;;;;;;;2.60;99.90;;;;;;5061834;28;19924;-52
2021/12/06 05:42:18;;;;;;;;;;;2.60;99.90;;;;;;5070973;28;19947;-52
2021/12/06 05:44:46;;;;;;;;;;;2.60;99.90;;;;;;5062235;28;19924;-51
2021/12/06 05:47:13;;;;;;;;;;;2.60;99.90;;;;;;5074555;28;20345;-52
2021/12/06 05:49:39;;;;;;;;;;;2.60;99.90;;;;;;5074978;28;20325;-52
2021/12/06 05:52:06;;;;;;;;;;;2.60;99.90;;;;;;5058623;28;19928;-51
2021/12/06 05:54:34;;;;;;;;;;;2.60;99.90;;;;;;5055731;28;19928;-52
2021/12/06 05:57:01;;;;;;;;;;;2.60;99.90;;;;;;5056002;28;19929;-52
2021/12/06 05:59:28;;;;;;;;;;;2.60;99.90;;;;;;5062217;28;19978;-52
2021/12/06 06:01:56;;;;;;;;;;;2.60;99.90;;;;;;5071325;28;19929;-51
2021/12/06 06:04:23;;;;;;;;;;;2.60;99.90;;;;;;5069773;28;19928;-52
2021/12/06 06:06:50;;;;;;;;;;;2.60;99.90;;;;;;5074258;28;19924;-52
2021/12/06 06:09:17;;;;;;;;;;;2.70;99.90;;;;;;5075268;28;19924;-52
2021/12/06 06:11:44;;;;;;;;;;;2.60;99.90;;;;;;5075218;28;19978;-52
2021/12/06 06:14:11;;;;;;;;;;;2.70;99.90;;;;;;5070067;28;19932;-52
2021/12/06 06:16:47;;;;;;;;;;;2.70;99.90;;;;;;5066400;28;19928;-52
2021/12/06 06:19:16;;;;;;;;;;;2.60;99.90;;;;;;5075266;28;19967;-52
2021/12/06 06:21:43;;;;;;;;;;;2.70;99.90;;;;;;5063112;28;19929;-52
2021/12/06 06:24:10;;;;;;;;;;;2.60;99.90;;;;;;5057418;28;19924;-52
2021/12/06 06:26:37;;;;;;;;;;;2.50;99.90;;;;;;5059532;28;19925;-52
2021/12/06 06:29:04;;;;;;;;;;;2.40;99.90;;;;;;5068283;28;20383;-52
2021/12/06 06:31:30;;;;;;;;;;;2.30;99.90;;;;;;5054480;28;19951;-52
2021/12/06 06:33:57;;;;;;;;;;;2.30;99.90;;;;;;5070955;28;19978;-51
2021/12/06 06:36:25;;;;;;;;;;;2.40;99.90;;;;;;5064185;28;19964;-52
2021/12/06 06:38:52;;;;;;;;;;;2.30;99.90;;;;;;5067925;28;19925;-52
2021/12/06 06:41:19;;;;;;;;;;;2.00;99.90;;;;;;5071845;28;19928;-52
2021/12/06 06:43:46;;;;;;;;;;;1.80;99.90;;;;;;5077839;28;20382;-52
2021/12/06 06:46:13;;;;;;;;;;;1.80;99.90;;;;;;5074736;28;19929;-52
2021/12/06 06:48:39;;;;;;;;;;;2.00;99.90;;;;;;5075122;28;20368;-52
2021/12/06 06:51:06;;;;;;;;;;;2.20;99.90;;;;;;5073462;28;19978;-52
2021/12/06 06:53:34;;;;;;;;;;;2.30;99.90;;;;;;5068671;28;20298;-52
2021/12/06 06:56:01;;;;;;;;;;;2.30;99.90;;;;;;5069377;28;19925;-52
2021/12/06 06:58:28;;;;;;;;;;;2.40;99.90;;;;;;5074783;28;19970;-53
2021/12/06 07:00:55;;;;;;;;;;;2.20;99.90;;;;;;5074057;28;19928;-52
2021/12/06 07:03:29;;;;;;;;;;;2.30;99.90;;;;;;5074743;28;19924;-53
2021/12/06 07:05:56;;;;;;;;;;;2.40;99.90;;;;;;5074785;28;19986;-52
2021/12/06 07:08:23;;;;;;;;;;;2.30;99.90;;;;;;5074648;28;19928;-52
2021/12/06 07:10:52;;;;;;;;;;;2.50;99.90;;;;;;5073232;28;19928;-51
2021/12/06 07:13:19;;;;;;;;;;;2.60;99.90;;;;;;5057730;28;19931;-52
2021/12/06 07:15:46;;;;;;;;;;;2.60;99.90;;;;;;5057573;28;19932;-52
2021/12/06 07:18:12;;;;;;;;;;;2.40;99.90;;;;;;5064744;28;19926;-52
2021/12/06 07:20:39;;;;;;;;;;;2.40;99.90;;;;;;5074179;28;19924;-52
2021/12/06 07:23:06;;;;;;;;;;;2.60;99.90;;;;;;5072066;28;19978;-52
2021/12/06 07:25:34;;;;;;;;;;;2.60;99.90;;;;;;5073193;28;19997;-52
2021/12/06 07:28:03;;;;;;;;;;;2.40;99.90;;;;;;5072717;28;19929;-52
2021/12/06 07:30:30;;;;;;;;;;;2.40;99.90;;;;;;5073157;28;19970;-52
2021/12/06 07:32:56;;;;;;;;;;;2.20;99.90;;;;;;5072566;28;19925;-51
2021/12/06 07:35:25;;;;;;;;;;;2.10;99.90;;;;;;5073233;28;19981;-52
2021/12/06 07:37:52;;;;;;;;;;;2.00;99.90;;;;;;5073729;28;19947;-52
2021/12/06 07:40:19;;;;;;;;;;;2.00;99.90;;;;;;5073528;28;19970;-52
2021/12/06 07:42:46;;;;;;;;;;;2.10;99.90;;;;;;5059586;28;20373;-52
2021/12/06 07:45:15;;;;;;;;;;;2.20;99.90;;;;;;5072178;28;19933;-52
2021/12/06 07:47:42;;;;;;;;;;;2.20;99.90;;;;;;5073624;28;20375;-52
2021/12/06 07:50:10;;;;;;;;;;;2.30;99.90;;;;;;5073061;28;19928;-52
2021/12/06 07:52:37;;;;;;;;;;;2.30;99.90;;;;;;5072919;28;19970;-52
2021/12/06 07:55:05;;;;;;;;;;;2.40;99.90;;;;;;5073280;28;19932;-52
2021/12/06 07:57:32;;;;;;;;;;;2.40;99.90;;;;;;5073051;28;19931;-54
2021/12/06 07:59:59;;;;;;;;;;;2.30;99.90;;;;;;5073144;28;19993;-52
2021/12/06 08:02:28;;;;;;;;;;;2.40;99.90;;;;;;5072358;28;19925;-53
2021/12/06 08:05:29;;;;;;;;;;;2.40;99.90;;;;;;5073371;28;19928;-52
2021/12/06 08:07:42;;;;;;;;;;;2.50;99.90;;;;;;5072028;28;19931;-52
2021/12/06 08:10:09;;;;;;;;;;;2.50;99.90;;;;;;5072610;28;19924;-52
2021/12/06 08:12:36;;;;;;;;;;;2.30;99.90;;;;;;5072091;28;19924;-52
2021/12/06 08:15:04;;;;;;;;;;;2.50;99.90;;;;;;5073220;28;20332;-52
2021/12/06 08:17:32;;;;;;;;;;;2.40;99.90;;;;;;5072648;28;20053;-51
2021/12/06 08:19:58;;;;;;;;;;;2.30;99.90;;;;;;5072021;28;19924;-52
2021/12/06 08:22:25;;;;;;;;;;;2.40;99.90;;;;;;5072083;28;19970;-52
2021/12/06 08:24:52;;;;;;;;;;;2.50;99.90;;;;;;5072635;28;19925;-52
2021/12/06 08:27:19;;;;;;;;;;;2.50;99.90;;;;;;5072556;28;19924;-52
2021/12/06 08:29:46;;;;;;;;;;;2.50;99.90;;;;;;5072511;28;19978;-52
2021/12/06 08:32:12;;;;;;;;;;;2.60;99.90;;;;;;5071312;28;20007;-52
2021/12/06 08:34:41;;;;;;;;;;;2.70;99.90;;;;;;5052586;28;19932;-52
2021/12/06 08:37:08;;;;;;;;;;;2.60;99.90;;;;;;5052925;28;20027;-52
2021/12/06 08:39:35;;;;;;;;;;;2.60;99.90;;;;;;5070309;28;20448;-53
2021/12/06 08:42:02;;;;;;;;;;;2.70;99.90;;;;;;5070281;28;19925;-51
2021/12/06 08:44:29;;;;;;;;;;;2.80;99.90;;;;;;5071794;28;20279;-53
2021/12/06 08:46:55;;;;;;;;;;;2.70;99.90;;;;;;5072541;28;20198;-53
2021/12/06 08:49:23;;;;;;;;;;;2.80;99.90;;;;;;5072837;28;19928;-53
2021/12/06 08:51:54;;;;;;;;;;;2.90;99.90;;;;;;5072173;28;20177;-53
2021/12/06 08:54:22;;;;;;;;;;;2.90;99.90;;;;;;5075078;28;19932;-52
2021/12/06 08:56:49;;;;;;;;;;;2.90;99.90;;;;;;5075309;28;20049;-52
2021/12/06 08:59:17;;;;;;;;;;;2.90;99.90;;;;;;5075377;28;19924;-52
2021/12/06 09:01:44;;;;;;;;;;;2.90;99.90;;;;;;5074201;28;19925;-52
2021/12/06 09:04:12;;;;;;;;;;;2.80;99.90;;;;;;5075376;28;19928;-52
2021/12/06 09:06:40;;;;;;;;;;;2.90;99.90;;;;;;5075686;28;19924;-53
2021/12/06 09:09:09;;;;;;;;;;;2.80;99.90;;;;;;5075360;28;19970;-53
2021/12/06 09:11:37;;;;;;;;;;;2.90;99.90;;;;;;5074902;28;19947;-52
2021/12/06 09:14:04;;;;;;;;;;;2.90;99.90;;;;;;5074383;28;19970;-52
2021/12/06 09:16:31;;;;;;;;;;;2.90;99.90;;;;;;5071279;28;19932;-52
2021/12/06 09:18:58;;;;;;;;;;;3.00;99.90;;;;;;5054549;28;19978;-52
2021/12/06 09:21:25;;;;;;;;;;;3.10;99.90;;;;;;5065751;28;19956;-53
2021/12/06 09:23:52;;;;;;;;;;;3.20;99.90;;;;;;5072089;28;20345;-53
2021/12/06 09:26:21;;;;;;;;;;;3.20;99.90;;;;;;5070927;28;19986;-52
2021/12/06 09:28:48;;;;;;;;;;;3.30;99.90;;;;;;5071437;28;19928;-52
2021/12/06 09:31:19;;;;;;;;;;;3.40;99.90;;;;;;5070459;28;20193;-52
2021/12/06 09:33:46;;;;;;;;;;;3.50;99.90;;;;;;5071630;28;20003;-52
2021/12/06 09:36:14;;;;;;;;;;;3.50;99.90;;;;;;5069786;28;19924;-52
2021/12/06 09:38:41;;;;;;;;;;;3.60;99.90;;;;;;5067459;28;19932;-52
2021/12/06 09:41:12;;;;;;;;;;;3.50;99.90;;;;;;5070962;28;19978;-53
2021/12/06 09:43:41;;;;;;;;;;;3.40;99.90;;;;;;5071915;28;19978;-52
2021/12/06 09:46:09;;;;;;;;;;;3.60;99.90;;;;;;5071594;28;19924;-52
2021/12/06 09:48:40;;;;;;;;;;;3.80;99.90;;;;;;5071602;28;19962;-52
2021/12/06 09:51:09;;;;;;;;;;;3.90;99.90;;;;;;5071204;28;19924;-52
2021/12/06 09:53:36;;;;;;;;;;;4.00;99.90;;;;;;5071476;28;19931;-52
2021/12/06 09:56:06;;;;;;;;;;;3.80;99.90;;;;;;5071487;28;19981;-52
2021/12/06 09:58:33;;;;;;;;;;;3.90;99.90;;;;;;5071591;28;19979;-52
2021/12/06 10:01:02;;;;;;;;;;;3.80;99.90;;;;;;5071382;28;20358;-52
2021/12/06 10:03:30;;;;;;;;;;;3.90;99.90;;;;;;5071887;28;19925;-52
2021/12/06 10:06:02;;;;;;;;;;;3.80;99.90;;;;;;5068569;28;19925;-52
2021/12/06 10:08:29;;;;;;;;;;;3.70;99.90;;;;;;5060964;28;19932;-52
2021/12/06 10:10:56;;;;;;;;;;;3.70;99.90;;;;;;5071224;28;19924;-52
2021/12/06 10:13:22;;;;;;;;;;;3.70;99.90;;;;;;5072034;28;19971;-52
2021/12/06 10:15:51;;;;;;;;;;;3.80;99.90;;;;;;5072078;28;19932;-53
2021/12/06 10:18:20;;;;;;;;;;;3.80;99.90;;;;;;5072214;28;20405;-51
2021/12/06 10:20:47;;;;;;;;;;;3.80;99.90;;;;;;5070989;28;19931;-52
2021/12/06 10:23:14;;;;;;;;;;;3.80;99.90;;;;;;5071364;28;19977;-52
2021/12/06 10:25:43;;;;;;;;;;;3.70;99.90;;;;;;5065500;28;19924;-53
2021/12/06 10:28:11;;;;;;;;;;;3.70;99.90;;;;;;5075350;28;19997;-53
2021/12/06 10:30:39;;;;;;;;;;;3.70;99.90;;;;;;5066808;28;19981;-52
2021/12/06 10:33:07;;;;;;;;;;;3.60;99.90;;;;;;5079472;28;19924;-52
2021/12/06 10:35:35;;;;;;;;;;;3.70;99.90;;;;;;5091311;28;19928;-52
2021/12/06 10:38:02;;;;;;;;;;;3.70;99.90;;;;;;5094418;28;20318;-52
2021/12/06 10:40:30;;;;;;;;;;;3.70;99.90;;;;;;5093945;28;19928;-52
2021/12/06 10:42:57;;;;;;;;;;;3.50;99.90;;;;;;5093941;28;19924;-52
2021/12/06 10:45:25;;;;;;;;;;;3.50;99.90;;;;;;5094390;28;19909;-52
2021/12/06 10:48:06;;;;;;;;;;;3.60;99.90;;;;;;5094923;28;19928;-52
2021/12/06 10:50:33;;;;;;;;;;;3.30;99.90;;;;;;5084427;28;19932;-54
2021/12/06 10:53:01;;;;;;;;;;;3.20;99.90;;;;;;5075075;28;19925;-53
2021/12/06 10:55:30;;;;;;;;;;;3.50;99.90;;;;;;5074701;28;19928;-52
2021/12/06 10:57:57;;;;;;;;;;;3.50;99.90;;;;;;5074719;28;19946;-56
2021/12/06 11:00:29;;;;;;;;;;;3.60;99.90;;;;;;5073845;28;19925;-52
2021/12/06 11:02:56;;;;;;;;;;;3.60;99.90;;;;;;5074505;28;19970;-52
2021/12/06 11:05:23;;;;;;;;;;;3.60;99.90;;;;;;5074151;28;19932;-54
2021/12/06 11:07:56;;;;;;;;;;;3.30;99.90;;;;;;5074563;28;19924;-54
2021/12/06 11:10:25;;;;;;;;;;;3.20;99.90;;;;;;5073789;28;19932;-55
2021/12/06 11:13:07;;;;;;;;;;;3.50;99.90;;;;;;5073912;28;19978;-54
2021/12/06 11:15:34;;;;;;;;;;;3.60;99.90;;;;;;5073725;28;20344;-54
2021/12/06 11:18:02;;;;;;;;;;;3.70;99.90;;;;;;5062243;28;19929;-54
2021/12/06 11:20:29;;;;;;;;;;;3.70;99.90;;;;;;5053395;28;19925;-56
2021/12/06 11:23:06;;;;;;;;;;;4.00;99.90;;;;;;5063398;28;19928;-53
2021/12/06 11:25:35;;;;;;;;;;;4.10;99.90;;;;;;5074034;28;20017;-54
2021/12/06 11:28:02;;;;;;;;;;;4.10;99.90;;;;;;5074195;28;19933;-55
2021/12/06 11:30:29;;;;;;;;;;;4.40;99.90;;;;;;5073287;28;20393;-55
2021/12/06 11:32:58;;;;;;;;;;;4.50;99.90;;;;;;5065014;28;19925;-54
2021/12/06 11:35:25;;;;;;;;;;;4.70;99.90;;;;;;5060487;28;19932;-54
2021/12/06 11:37:59;;;;;;;;;;;5.10;99.90;;;;;;5073653;28;19978;-53
2021/12/06 11:40:27;;;;;;;;;;;5.20;99.90;;;;;;5073424;28;19966;-54
2021/12/06 11:42:57;;;;;;;;;;;5.20;99.90;;;;;;5073057;28;19925;-54
2021/12/06 11:45:34;;;;;;;;;;;5.40;99.90;;;;;;5073597;28;19928;-55
2021/12/06 11:48:01;;;;;;;;;;;5.50;99.90;;;;;;5073649;28;19946;-54
2021/12/06 11:50:28;;;;;;;;;;;5.10;99.90;;;;;;5072924;28;19971;-54
2021/12/06 11:52:56;;;;;;;;;;;4.80;99.90;;;;;;5072855;28;19977;-54
2021/12/06 11:55:27;;;;;;;;;;;4.70;99.90;;;;;;5073070;28;19928;-54
2021/12/06 11:57:55;;;;;;;;;;;4.50;99.90;;;;;;5073589;28;19928;-55
2021/12/06 12:00:23;;;;;;;;;;;4.30;99.90;;;;;;5072785;28;19928;-55
2021/12/06 12:02:51;;;;;;;;;;;4.30;99.90;;;;;;5072886;28;20356;-56
2021/12/06 12:05:19;;;;;;;;;;;4.10;99.90;;;;;;5072979;28;19974;-55
2021/12/06 12:07:54;;;;;;;;;;;3.80;99.90;;;;;;5073430;28;19935;-54
2021/12/06 12:10:27;;;;;;;;;;;3.70;99.90;;;;;;5072726;28;19928;-54
2021/12/06 12:12:55;;;;;;;;;;;3.70;99.90;;;;;;5071251;28;19933;-55
2021/12/06 12:15:22;;;;;;;;;;;3.70;99.90;;;;;;5072741;28;19924;-53
2021/12/06 12:17:53;;;;;;;;;;;3.60;99.90;;;;;;5073295;28;19925;-54
2021/12/06 12:20:23;;;;;;;;;;;3.80;99.90;;;;;;5072771;28;19952;-53
2021/12/06 12:22:50;;;;;;;;;;;3.90;99.90;;;;;;5072603;28;19931;-54
2021/12/06 12:25:25;;;;;;;;;;;4.00;99.90;;;;;;5072620;28;19947;-53
2021/12/06 12:27:58;;;;;;;;;;;4.20;99.90;;;;;;5072846;28;19925;-53
2021/12/06 12:30:31;;;;;;;;;;;4.20;99.90;;;;;;5072157;28;20398;-53
2021/12/06 12:32:58;;;;;;;;;;;4.00;99.90;;;;;;5072410;28;19976;-55
2021/12/06 12:35:25;;;;;;;;;;;4.40;99.90;;;;;;5072298;28;19931;-53
2021/12/06 12:37:54;;;;;;;;;;;4.50;99.90;;;;;;5072699;28;19931;-53
2021/12/06 12:40:22;;;;;;;;;;;4.60;99.90;;;;;;5070803;28;19932;-55
2021/12/06 12:42:56;;;;;;;;;;;4.80;99.90;;;;;;5072274;28;19924;-54
2021/12/06 12:45:23;;;;;;;;;;;4.90;99.90;;;;;;5071997;28;19925;-54
2021/12/06 12:47:56;;;;;;;;;;;4.80;99.90;;;;;;5072077;28;20007;-53
2021/12/06 12:50:25;;;;;;;;;;;4.70;99.90;;;;;;5071972;28;20027;-54
2021/12/06 12:52:54;;;;;;;;;;;4.70;99.90;;;;;;5071863;28;20015;-53
2021/12/06 12:55:23;;;;;;;;;;;4.50;99.90;;;;;;5071708;28;19970;-53
2021/12/06 12:57:50;;;;;;;;;;;4.40;99.90;;;;;;5072436;28;19931;-53
2021/12/06 13:00:18;;;;;;;;;;;4.50;99.90;;;;;;5071805;28;19978;-53
2021/12/06 13:02:45;;;;;;;;;;;4.30;99.90;;;;;;5071923;28;19928;-54
2021/12/06 13:05:18;;;;;;;;;;;4.30;99.90;;;;;;5066969;28;19939;-52
2021/12/06 13:07:54;;;;;;;;;;;4.30;99.90;;;;;;5072336;28;19928;-53
2021/12/06 13:10:41;;;;;;;;;;;4.20;99.90;;;;;;5072828;28;19925;-53
2021/12/06 13:13:16;;;;;;;;;;;4.00;99.90;;;;;;5070087;28;19924;-54
2021/12/06 13:15:51;;;;;;;;;;;3.90;99.90;;;;;;5071717;28;19925;-53
2021/12/06 13:18:34;;;;;;;;;;;4.10;99.90;;;;;;5058718;28;19960;-53
2021/12/06 13:21:16;;;;;;;;;;;4.10;99.90;;;;;;5051644;28;20023;-54
2021/12/06 13:23:44;;;;;;;;;;;4.20;99.90;;;;;;5062906;28;19928;-53
2021/12/06 13:26:11;;;;;;;;;;;4.00;99.90;;;;;;5071677;28;19924;-53
2021/12/06 13:28:53;;;;;;;;;;;4.00;99.90;;;;;;5071934;28;19925;-54
2021/12/06 13:31:24;;;;;;;;;;;4.00;99.90;;;;;;5058302;28;19928;-56
2021/12/06 13:33:51;;;;;;;;;;;4.10;99.90;;;;;;5070641;28;19924;-53
2021/12/06 13:36:37;;;;;;;;;;;4.20;99.90;;;;;;5071810;28;19990;-54
2021/12/06 13:39:06;;;;;;;;;;;3.90;99.90;;;;;;5072319;28;19925;-53
2021/12/06 13:41:45;;;;;;;;;;;3.80;99.90;;;;;;5071453;28;20390;-53
2021/12/06 13:44:14;;;;;;;;;;;4.00;99.90;;;;;;5071835;28;19924;-54
2021/12/06 13:46:43;;;;;;;;;;;4.20;99.90;;;;;;5072031;28;20379;-53
2021/12/06 13:49:12;;;;;;;;;;;4.30;99.90;;;;;;5071745;28;19925;-53
2021/12/06 13:51:53;;;;;;;;;;;4.20;99.90;;;;;;5071541;28;19970;-53
2021/12/06 13:54:27;;;;;;;;;;;4.10;99.90;;;;;;5071845;28;19929;-54
2021/12/06 13:56:56;;;;;;;;;;;4.20;99.90;;;;;;5072207;28;19925;-53
2021/12/06 13:59:25;;;;;;;;;;;4.40;99.90;;;;;;5071524;28;19929;-53
2021/12/06 14:01:52;;;;;;;;;;;4.30;99.90;;;;;;5071236;28;20298;-53
2021/12/06 14:04:20;;;;;;;;;;;4.40;99.90;;;;;;5071582;28;19924;-54
2021/12/06 14:06:48;;;;;;;;;;;4.60;99.90;;;;;;5075517;28;20452;-53
2021/12/06 14:09:15;;;;;;;;;;;4.60;99.90;;;;;;5075813;28;19929;-54
2021/12/06 14:11:45;;;;;;;;;;;4.70;99.90;;;;;;5054910;28;20284;-53
2021/12/06 14:14:14;;;;;;;;;;;4.60;99.90;;;;;;5069727;28;19999;-54
2021/12/06 14:16:42;;;;;;;;;;;4.50;99.90;;;;;;5075873;28;19975;-53
2021/12/06 14:19:09;;;;;;;;;;;4.60;99.90;;;;;;5075577;28;19924;-54
2021/12/06 14:21:36;;;;;;;;;;;4.60;99.90;;;;;;5074738;28;20483;-53
2021/12/06 14:24:04;;;;;;;;;;;4.50;99.90;;;;;;5075055;28;20386;-53
2021/12/06 14:26:32;;;;;;;;;;;4.40;99.90;;;;;;5075653;28;19924;-53
2021/12/06 14:29:00;;;;;;;;;;;4.30;99.90;;;;;;5075477;28;19924;-53
2021/12/06 14:31:29;;;;;;;;;;;4.20;99.90;;;;;;5074605;28;19928;-53
2021/12/06 14:34:03;;;;;;;;;;;4.10;99.90;;;;;;5074765;28;20301;-53
2021/12/06 14:36:29;;;;;;;;;;;4.20;99.90;;;;;;5075400;28;19929;-53
2021/12/06 14:38:56;;;;;;;;;;;4.20;99.90;;;;;;5075363;28;19970;-53
2021/12/06 14:41:23;;;;;;;;;;;4.20;99.90;;;;;;5074548;28;20394;-53
2021/12/06 14:43:50;;;;;;;;;;;4.20;99.90;;;;;;5074279;28;19924;-53
2021/12/06 14:46:18;;;;;;;;;;;4.30;99.90;;;;;;5073705;28;19978;-53
2021/12/06 14:48:47;;;;;;;;;;;4.30;99.90;;;;;;5074468;28;20316;-55
2021/12/06 14:51:15;;;;;;;;;;;4.30;99.90;;;;;;5073835;28;19972;-52
2021/12/06 14:53:51;;;;;;;;;;;4.30;99.90;;;;;;5067217;28;20434;-53
2021/12/06 14:56:27;;;;;;;;;;;4.30;99.90;;;;;;5075110;28;19935;-53
2021/12/06 14:58:56;;;;;;;;;;;4.20;99.90;;;;;;5075231;28;19931;-52
2021/12/06 15:01:26;;;;;;;;;;;4.10;99.90;;;;;;5073516;28;19937;-53